sensor_id;sensor_type;location;lat;lon;timestamp;P1;durP1;ratioP1;P2;durP2;ratioP2
4585;SDS011;2305;50.118;8.952;2022-08-14T00:02:23;8.93;;;5.60;;
4585;SDS011;2305;50.118;8.952;2022-08-14T00:05:04;6.40;;;5.10;;
4585;SDS011;2305;50.118;8.952;2022-08-14T00:07:36;5.47;;;4.97;;
4585;SDS011;2305;50.118;8.952;2022-08-14T00:10:08;8.23;;;5.90;;
4585;SDS011;2305;50.118;8.952;2022-08-14T00:12:58;6.37;;;4.83;;
4585;SDS011;2305;50.118;8.952;2022-08-14T00:15:35;7.07;;;5.03;;
4585;SDS011;2305;50.118;8.952;2022-08-14T00:18:14;5.57;;;5.07;;
4585;SDS011;2305;50.118;8.952;2022-08-14T00:21:06;5.10;;;4.60;;
4585;SDS011;2305;50.118;8.952;2022-08-14T00:23:39;6.43;;;5.10;;
4585;SDS011;2305;50.118;8.952;2022-08-14T00:26:08;8.33;;;5.03;;
4585;SDS011;2305;50.118;8.952;2022-08-14T00:28:51;7.37;;;4.87;;
4585;SDS011;2305;50.118;8.952;2022-08-14T00:31:20;7.63;;;4.63;;
4585;SDS011;2305;50.118;8.952;2022-08-14T00:34:09;6.07;;;5.17;;
4585;SDS011;2305;50.118;8.952;2022-08-14T00:36:58;9.40;;;5.37;;
4585;SDS011;2305;50.118;8.952;2022-08-14T00:39:28;6.67;;;4.80;;
4585;SDS011;2305;50.118;8.952;2022-08-14T00:41:56;7.63;;;5.70;;
4585;SDS011;2305;50.118;8.952;2022-08-14T00:44:24;6.57;;;4.80;;
4585;SDS011;2305;50.118;8.952;2022-08-14T00:46:59;6.10;;;4.90;;
4585;SDS011;2305;50.118;8.952;2022-08-14T00:49:31;11.40;;;5.40;;
4585;SDS011;2305;50.118;8.952;2022-08-14T00:52:10;5.93;;;5.37;;
4585;SDS011;2305;50.118;8.952;2022-08-14T00:54:44;6.70;;;6.00;;
4585;SDS011;2305;50.118;8.952;2022-08-14T00:57:16;5.73;;;5.13;;
4585;SDS011;2305;50.118;8.952;2022-08-14T00:59:46;7.83;;;5.00;;
4585;SDS011;2305;50.118;8.952;2022-08-14T01:02:17;5.97;;;5.37;;
4585;SDS011;2305;50.118;8.952;2022-08-14T01:04:54;6.40;;;5.47;;
4585;SDS011;2305;50.118;8.952;2022-08-14T01:07:26;8.40;;;6.10;;
4585;SDS011;2305;50.118;8.952;2022-08-14T01:10:04;6.70;;;5.93;;
4585;SDS011;2305;50.118;8.952;2022-08-14T01:12:33;6.00;;;5.40;;
4585;SDS011;2305;50.118;8.952;2022-08-14T01:15:06;5.37;;;4.87;;
4585;SDS011;2305;50.118;8.952;2022-08-14T01:17:40;6.20;;;5.60;;
4585;SDS011;2305;50.118;8.952;2022-08-14T01:20:28;6.30;;;5.70;;
4585;SDS011;2305;50.118;8.952;2022-08-14T01:23:17;5.93;;;5.40;;
4585;SDS011;2305;50.118;8.952;2022-08-14T01:25:47;12.70;;;5.37;;
4585;SDS011;2305;50.118;8.952;2022-08-14T01:28:18;6.20;;;5.60;;
4585;SDS011;2305;50.118;8.952;2022-08-14T01:31:10;6.40;;;5.80;;
4585;SDS011;2305;50.118;8.952;2022-08-14T01:33:40;6.87;;;5.43;;
4585;SDS011;2305;50.118;8.952;2022-08-14T01:36:31;6.27;;;5.40;;
4585;SDS011;2305;50.118;8.952;2022-08-14T01:39:07;6.97;;;6.20;;
4585;SDS011;2305;50.118;8.952;2022-08-14T01:41:39;6.23;;;5.63;;
4585;SDS011;2305;50.118;8.952;2022-08-14T01:44:10;6.73;;;5.70;;
4585;SDS011;2305;50.118;8.952;2022-08-14T01:47:01;6.40;;;5.03;;
4585;SDS011;2305;50.118;8.952;2022-08-14T01:49:37;6.60;;;5.10;;
4585;SDS011;2305;50.118;8.952;2022-08-14T01:52:24;8.53;;;5.60;;
4585;SDS011;2305;50.118;8.952;2022-08-14T01:55:15;6.30;;;5.70;;
4585;SDS011;2305;50.118;8.952;2022-08-14T01:57:57;6.57;;;5.57;;
4585;SDS011;2305;50.118;8.952;2022-08-14T02:00:52;7.33;;;6.60;;
4585;SDS011;2305;50.118;8.952;2022-08-14T02:03:31;13.70;;;6.50;;
4585;SDS011;2305;50.118;8.952;2022-08-14T02:06:24;6.50;;;5.87;;
4585;SDS011;2305;50.118;8.952;2022-08-14T02:09:02;6.87;;;5.70;;
4585;SDS011;2305;50.118;8.952;2022-08-14T02:11:54;8.17;;;6.67;;
4585;SDS011;2305;50.118;8.952;2022-08-14T02:14:33;7.13;;;6.40;;
4585;SDS011;2305;50.118;8.952;2022-08-14T02:17:05;7.70;;;6.90;;
4585;SDS011;2305;50.118;8.952;2022-08-14T02:19:41;6.83;;;6.20;;
4585;SDS011;2305;50.118;8.952;2022-08-14T02:22:16;6.50;;;5.63;;
4585;SDS011;2305;50.118;8.952;2022-08-14T02:24:58;6.67;;;5.97;;
4585;SDS011;2305;50.118;8.952;2022-08-14T02:27:44;9.47;;;6.40;;
4585;SDS011;2305;50.118;8.952;2022-08-14T02:30:36;12.53;;;6.60;;
4585;SDS011;2305;50.118;8.952;2022-08-14T02:33:10;7.10;;;6.40;;
4585;SDS011;2305;50.118;8.952;2022-08-14T02:35:50;6.80;;;6.10;;
4585;SDS011;2305;50.118;8.952;2022-08-14T02:38:49;7.27;;;6.57;;
4585;SDS011;2305;50.118;8.952;2022-08-14T02:41:39;6.90;;;6.30;;
4585;SDS011;2305;50.118;8.952;2022-08-14T02:44:29;8.13;;;6.90;;
4585;SDS011;2305;50.118;8.952;2022-08-14T02:47:16;7.40;;;6.40;;
4585;SDS011;2305;50.118;8.952;2022-08-14T02:49:52;7.40;;;6.70;;
4585;SDS011;2305;50.118;8.952;2022-08-14T02:52:36;6.80;;;6.03;;
4585;SDS011;2305;50.118;8.952;2022-08-14T02:55:51;6.57;;;5.57;;
4585;SDS011;2305;50.118;8.952;2022-08-14T02:58:37;8.23;;;6.40;;
4585;SDS011;2305;50.118;8.952;2022-08-14T03:01:15;7.00;;;6.30;;
4585;SDS011;2305;50.118;8.952;2022-08-14T03:04:19;8.63;;;6.43;;
4585;SDS011;2305;50.118;8.952;2022-08-14T03:06:58;7.20;;;6.50;;
4585;SDS011;2305;50.118;8.952;2022-08-14T03:09:49;7.90;;;7.10;;
4585;SDS011;2305;50.118;8.952;2022-08-14T03:12:50;11.07;;;7.10;;
4585;SDS011;2305;50.118;8.952;2022-08-14T03:15:29;8.73;;;7.67;;
4585;SDS011;2305;50.118;8.952;2022-08-14T03:18:30;7.60;;;6.80;;
4585;SDS011;2305;50.118;8.952;2022-08-14T03:21:03;6.33;;;5.73;;
4585;SDS011;2305;50.118;8.952;2022-08-14T03:23:45;7.03;;;6.27;;
4585;SDS011;2305;50.118;8.952;2022-08-14T03:26:19;7.73;;;6.70;;
4585;SDS011;2305;50.118;8.952;2022-08-14T03:29:02;8.20;;;6.43;;
4585;SDS011;2305;50.118;8.952;2022-08-14T03:31:39;11.07;;;7.27;;
4585;SDS011;2305;50.118;8.952;2022-08-14T03:34:19;8.00;;;7.17;;
4585;SDS011;2305;50.118;8.952;2022-08-14T03:37:15;8.50;;;7.20;;
4585;SDS011;2305;50.118;8.952;2022-08-14T03:40:06;7.87;;;6.60;;
4585;SDS011;2305;50.118;8.952;2022-08-14T03:42:46;10.13;;;6.67;;
4585;SDS011;2305;50.118;8.952;2022-08-14T03:45:18;8.27;;;7.27;;
4585;SDS011;2305;50.118;8.952;2022-08-14T03:48:09;7.63;;;6.50;;
4585;SDS011;2305;50.118;8.952;2022-08-14T03:51:01;8.17;;;6.70;;
4585;SDS011;2305;50.118;8.952;2022-08-14T03:53:44;9.67;;;7.40;;
4585;SDS011;2305;50.118;8.952;2022-08-14T03:56:24;13.63;;;6.87;;
4585;SDS011;2305;50.118;8.952;2022-08-14T03:59:20;10.03;;;7.50;;
4585;SDS011;2305;50.118;8.952;2022-08-14T04:01:57;8.33;;;7.43;;
4585;SDS011;2305;50.118;8.952;2022-08-14T04:04:57;9.10;;;6.77;;
4585;SDS011;2305;50.118;8.952;2022-08-14T04:07:44;6.90;;;6.20;;
4585;SDS011;2305;50.118;8.952;2022-08-14T04:10:36;8.50;;;7.50;;
4585;SDS011;2305;50.118;8.952;2022-08-14T04:13:07;11.13;;;7.53;;
4585;SDS011;2305;50.118;8.952;2022-08-14T04:15:41;10.40;;;7.83;;
4585;SDS011;2305;50.118;8.952;2022-08-14T04:18:30;8.03;;;7.23;;
4585;SDS011;2305;50.118;8.952;2022-08-14T04:21:02;13.37;;;7.50;;
4585;SDS011;2305;50.118;8.952;2022-08-14T04:23:42;8.27;;;6.97;;
4585;SDS011;2305;50.118;8.952;2022-08-14T04:26:29;8.67;;;6.73;;
4585;SDS011;2305;50.118;8.952;2022-08-14T04:29:09;9.80;;;7.80;;
4585;SDS011;2305;50.118;8.952;2022-08-14T04:31:42;8.87;;;7.97;;
4585;SDS011;2305;50.118;8.952;2022-08-14T04:34:36;8.77;;;7.87;;
4585;SDS011;2305;50.118;8.952;2022-08-14T04:37:21;8.07;;;7.27;;
4585;SDS011;2305;50.118;8.952;2022-08-14T04:40:24;9.17;;;8.20;;
4585;SDS011;2305;50.118;8.952;2022-08-14T04:43:14;10.90;;;8.10;;
4585;SDS011;2305;50.118;8.952;2022-08-14T04:46:08;9.60;;;7.87;;
4585;SDS011;2305;50.118;8.952;2022-08-14T04:48:59;9.00;;;7.03;;
4585;SDS011;2305;50.118;8.952;2022-08-14T04:51:28;10.20;;;9.10;;
4585;SDS011;2305;50.118;8.952;2022-08-14T04:54:12;16.50;;;7.80;;
4585;SDS011;2305;50.118;8.952;2022-08-14T04:56:45;11.60;;;8.10;;
4585;SDS011;2305;50.118;8.952;2022-08-14T04:59:21;9.30;;;7.53;;
4585;SDS011;2305;50.118;8.952;2022-08-14T05:01:57;8.00;;;7.13;;
4585;SDS011;2305;50.118;8.952;2022-08-14T05:04:29;8.00;;;7.07;;
4585;SDS011;2305;50.118;8.952;2022-08-14T05:07:11;12.27;;;7.80;;
4585;SDS011;2305;50.118;8.952;2022-08-14T05:10:10;9.30;;;8.27;;
4585;SDS011;2305;50.118;8.952;2022-08-14T05:12:49;7.73;;;6.93;;
4585;SDS011;2305;50.118;8.952;2022-08-14T05:15:37;8.33;;;7.30;;
4585;SDS011;2305;50.118;8.952;2022-08-14T05:18:08;8.47;;;7.53;;
4585;SDS011;2305;50.118;8.952;2022-08-14T05:20:59;8.40;;;7.50;;
4585;SDS011;2305;50.118;8.952;2022-08-14T05:23:48;8.80;;;7.90;;
4585;SDS011;2305;50.118;8.952;2022-08-14T05:26:19;11.13;;;7.40;;
4585;SDS011;2305;50.118;8.952;2022-08-14T05:28:48;9.23;;;8.23;;
4585;SDS011;2305;50.118;8.952;2022-08-14T05:31:19;8.43;;;7.63;;
4585;SDS011;2305;50.118;8.952;2022-08-14T05:33:47;8.40;;;7.60;;
4585;SDS011;2305;50.118;8.952;2022-08-14T05:36:22;8.17;;;7.33;;
4585;SDS011;2305;50.118;8.952;2022-08-14T05:38:52;9.13;;;8.20;;
4585;SDS011;2305;50.118;8.952;2022-08-14T05:41:23;8.87;;;7.50;;
4585;SDS011;2305;50.118;8.952;2022-08-14T05:44:12;10.17;;;8.47;;
4585;SDS011;2305;50.118;8.952;2022-08-14T05:46:40;11.60;;;8.43;;
4585;SDS011;2305;50.118;8.952;2022-08-14T05:49:12;8.57;;;7.67;;
4585;SDS011;2305;50.118;8.952;2022-08-14T05:51:40;9.40;;;7.70;;
4585;SDS011;2305;50.118;8.952;2022-08-14T05:54:12;8.80;;;7.90;;
4585;SDS011;2305;50.118;8.952;2022-08-14T05:56:52;10.80;;;7.97;;
4585;SDS011;2305;50.118;8.952;2022-08-14T05:59:22;9.23;;;8.10;;
4585;SDS011;2305;50.118;8.952;2022-08-14T06:02:05;9.20;;;7.80;;
4585;SDS011;2305;50.118;8.952;2022-08-14T06:04:38;13.97;;;7.93;;
4585;SDS011;2305;50.118;8.952;2022-08-14T06:07:15;8.93;;;8.03;;
4585;SDS011;2305;50.118;8.952;2022-08-14T06:09:43;9.03;;;7.53;;
4585;SDS011;2305;50.118;8.952;2022-08-14T06:12:18;10.70;;;8.07;;
4585;SDS011;2305;50.118;8.952;2022-08-14T06:15:07;12.07;;;7.73;;
4585;SDS011;2305;50.118;8.952;2022-08-14T06:17:43;8.47;;;7.67;;
4585;SDS011;2305;50.118;8.952;2022-08-14T06:20:24;7.87;;;7.10;;
4585;SDS011;2305;50.118;8.952;2022-08-14T06:22:54;8.20;;;7.40;;
4585;SDS011;2305;50.118;8.952;2022-08-14T06:25:22;9.90;;;6.93;;
4585;SDS011;2305;50.118;8.952;2022-08-14T06:27:51;8.53;;;7.70;;
4585;SDS011;2305;50.118;8.952;2022-08-14T06:30:25;12.50;;;7.40;;
4585;SDS011;2305;50.118;8.952;2022-08-14T06:33:11;12.87;;;8.10;;
4585;SDS011;2305;50.118;8.952;2022-08-14T06:35:41;8.90;;;7.90;;
4585;SDS011;2305;50.118;8.952;2022-08-14T06:38:15;10.50;;;7.53;;
4585;SDS011;2305;50.118;8.952;2022-08-14T06:40:44;8.70;;;7.33;;
4585;SDS011;2305;50.118;8.952;2022-08-14T06:43:13;8.60;;;7.50;;
4585;SDS011;2305;50.118;8.952;2022-08-14T06:45:46;9.33;;;7.80;;
4585;SDS011;2305;50.118;8.952;2022-08-14T06:48:21;8.83;;;7.93;;
4585;SDS011;2305;50.118;8.952;2022-08-14T06:50:50;9.97;;;7.83;;
4585;SDS011;2305;50.118;8.952;2022-08-14T06:53:20;10.07;;;7.80;;
4585;SDS011;2305;50.118;8.952;2022-08-14T06:55:54;8.47;;;7.30;;
4585;SDS011;2305;50.118;8.952;2022-08-14T06:58:28;9.70;;;8.20;;
4585;SDS011;2305;50.118;8.952;2022-08-14T07:01:00;8.90;;;7.90;;
4585;SDS011;2305;50.118;8.952;2022-08-14T07:03:53;8.73;;;7.47;;
4585;SDS011;2305;50.118;8.952;2022-08-14T07:06:50;11.57;;;7.30;;
4585;SDS011;2305;50.118;8.952;2022-08-14T07:09:24;8.77;;;7.70;;
4585;SDS011;2305;50.118;8.952;2022-08-14T07:11:53;7.63;;;6.73;;
4585;SDS011;2305;50.118;8.952;2022-08-14T07:14:23;8.43;;;7.53;;
4585;SDS011;2305;50.118;8.952;2022-08-14T07:16:53;9.30;;;6.90;;
4585;SDS011;2305;50.118;8.952;2022-08-14T07:19:21;11.10;;;7.43;;
4585;SDS011;2305;50.118;8.952;2022-08-14T07:21:50;8.80;;;7.07;;
4585;SDS011;2305;50.118;8.952;2022-08-14T07:24:18;11.23;;;8.17;;
4585;SDS011;2305;50.118;8.952;2022-08-14T07:26:56;9.23;;;6.80;;
4585;SDS011;2305;50.118;8.952;2022-08-14T07:29:25;8.93;;;7.70;;
4585;SDS011;2305;50.118;8.952;2022-08-14T07:31:56;8.43;;;7.37;;
4585;SDS011;2305;50.118;8.952;2022-08-14T07:34:25;13.93;;;7.53;;
4585;SDS011;2305;50.118;8.952;2022-08-14T07:37:06;7.30;;;6.70;;
4585;SDS011;2305;50.118;8.952;2022-08-14T07:39:35;7.87;;;7.17;;
4585;SDS011;2305;50.118;8.952;2022-08-14T07:42:06;8.07;;;6.50;;
4585;SDS011;2305;50.118;8.952;2022-08-14T07:44:35;8.27;;;6.57;;
4585;SDS011;2305;50.118;8.952;2022-08-14T07:47:17;8.00;;;6.67;;
4585;SDS011;2305;50.118;8.952;2022-08-14T07:49:51;7.87;;;7.10;;
4585;SDS011;2305;50.118;8.952;2022-08-14T07:52:27;6.17;;;5.63;;
4585;SDS011;2305;50.118;8.952;2022-08-14T07:54:57;7.03;;;6.33;;
4585;SDS011;2305;50.118;8.952;2022-08-14T07:57:28;6.10;;;5.60;;
4585;SDS011;2305;50.118;8.952;2022-08-14T07:59:56;6.17;;;5.57;;
4585;SDS011;2305;50.118;8.952;2022-08-14T08:02:29;6.30;;;5.73;;
4585;SDS011;2305;50.118;8.952;2022-08-14T08:04:58;6.60;;;5.50;;
4585;SDS011;2305;50.118;8.952;2022-08-14T08:07:28;6.10;;;5.47;;
4585;SDS011;2305;50.118;8.952;2022-08-14T08:09:57;9.90;;;7.20;;
4585;SDS011;2305;50.118;8.952;2022-08-14T08:12:28;7.43;;;6.40;;
4585;SDS011;2305;50.118;8.952;2022-08-14T08:14:58;6.47;;;5.87;;
4585;SDS011;2305;50.118;8.952;2022-08-14T08:17:37;5.87;;;5.30;;
4585;SDS011;2305;50.118;8.952;2022-08-14T08:20:19;6.40;;;5.80;;
4585;SDS011;2305;50.118;8.952;2022-08-14T08:22:53;5.77;;;5.27;;
4585;SDS011;2305;50.118;8.952;2022-08-14T08:25:32;5.80;;;5.23;;
4585;SDS011;2305;50.118;8.952;2022-08-14T08:28:06;11.13;;;6.67;;
4585;SDS011;2305;50.118;8.952;2022-08-14T08:30:48;7.70;;;6.90;;
4585;SDS011;2305;50.118;8.952;2022-08-14T08:33:20;6.60;;;6.00;;
4585;SDS011;2305;50.118;8.952;2022-08-14T08:35:50;5.63;;;5.13;;
4585;SDS011;2305;50.118;8.952;2022-08-14T08:38:22;10.70;;;6.70;;
4585;SDS011;2305;50.118;8.952;2022-08-14T08:41:11;5.93;;;5.43;;
4585;SDS011;2305;50.118;8.952;2022-08-14T08:43:40;15.43;;;6.00;;
4585;SDS011;2305;50.118;8.952;2022-08-14T08:46:13;5.90;;;5.40;;
4585;SDS011;2305;50.118;8.952;2022-08-14T08:48:51;10.80;;;6.10;;
4585;SDS011;2305;50.118;8.952;2022-08-14T08:51:23;6.67;;;6.00;;
4585;SDS011;2305;50.118;8.952;2022-08-14T08:54:01;6.90;;;5.83;;
4585;SDS011;2305;50.118;8.952;2022-08-14T08:56:34;6.07;;;5.50;;
4585;SDS011;2305;50.118;8.952;2022-08-14T08:59:16;5.60;;;5.10;;
4585;SDS011;2305;50.118;8.952;2022-08-14T09:01:47;6.80;;;6.20;;
4585;SDS011;2305;50.118;8.952;2022-08-14T09:04:23;7.63;;;6.90;;
4585;SDS011;2305;50.118;8.952;2022-08-14T09:06:52;7.40;;;6.17;;
4585;SDS011;2305;50.118;8.952;2022-08-14T09:09:36;10.83;;;5.10;;
4585;SDS011;2305;50.118;8.952;2022-08-14T09:12:27;6.37;;;5.77;;
4585;SDS011;2305;50.118;8.952;2022-08-14T09:14:59;6.10;;;5.50;;
4585;SDS011;2305;50.118;8.952;2022-08-14T09:17:28;5.37;;;4.90;;
4585;SDS011;2305;50.118;8.952;2022-08-14T09:19:58;5.40;;;4.90;;
4585;SDS011;2305;50.118;8.952;2022-08-14T09:22:29;5.50;;;5.00;;
4585;SDS011;2305;50.118;8.952;2022-08-14T09:25:03;5.70;;;5.20;;
4585;SDS011;2305;50.118;8.952;2022-08-14T09:27:33;8.13;;;5.00;;
4585;SDS011;2305;50.118;8.952;2022-08-14T09:30:01;4.90;;;4.50;;
4585;SDS011;2305;50.118;8.952;2022-08-14T09:32:55;5.63;;;4.97;;
4585;SDS011;2305;50.118;8.952;2022-08-14T09:35:42;5.70;;;4.70;;
4585;SDS011;2305;50.118;8.952;2022-08-14T09:38:23;5.27;;;4.77;;
4585;SDS011;2305;50.118;8.952;2022-08-14T09:41:02;5.07;;;3.90;;
4585;SDS011;2305;50.118;8.952;2022-08-14T09:43:39;4.53;;;4.13;;
4585;SDS011;2305;50.118;8.952;2022-08-14T09:46:14;5.27;;;4.57;;
4585;SDS011;2305;50.118;8.952;2022-08-14T09:48:56;4.90;;;4.50;;
4585;SDS011;2305;50.118;8.952;2022-08-14T09:51:28;8.47;;;4.70;;
4585;SDS011;2305;50.118;8.952;2022-08-14T09:54:10;5.00;;;4.60;;
4585;SDS011;2305;50.118;8.952;2022-08-14T09:56:49;5.83;;;5.00;;
4585;SDS011;2305;50.118;8.952;2022-08-14T09:59:27;7.57;;;4.20;;
4585;SDS011;2305;50.118;8.952;2022-08-14T10:02:19;4.70;;;4.00;;
4585;SDS011;2305;50.118;8.952;2022-08-14T10:04:59;6.93;;;4.23;;
4585;SDS011;2305;50.118;8.952;2022-08-14T10:07:31;5.57;;;4.47;;
4585;SDS011;2305;50.118;8.952;2022-08-14T10:10:01;7.20;;;4.63;;
4585;SDS011;2305;50.118;8.952;2022-08-14T10:12:49;5.00;;;4.50;;
4585;SDS011;2305;50.118;8.952;2022-08-14T10:15:27;4.93;;;4.40;;
4585;SDS011;2305;50.118;8.952;2022-08-14T10:18:03;5.77;;;4.27;;
4585;SDS011;2305;50.118;8.952;2022-08-14T10:20:39;8.00;;;4.63;;
4585;SDS011;2305;50.118;8.952;2022-08-14T10:23:17;6.17;;;4.53;;
4585;SDS011;2305;50.118;8.952;2022-08-14T10:25:48;8.03;;;4.40;;
4585;SDS011;2305;50.118;8.952;2022-08-14T10:28:20;5.60;;;4.27;;
4585;SDS011;2305;50.118;8.952;2022-08-14T10:31:15;9.00;;;3.90;;
4585;SDS011;2305;50.118;8.952;2022-08-14T10:33:58;7.60;;;4.40;;
4585;SDS011;2305;50.118;8.952;2022-08-14T10:36:29;4.50;;;4.10;;
4585;SDS011;2305;50.118;8.952;2022-08-14T10:39:06;4.10;;;3.70;;
4585;SDS011;2305;50.118;8.952;2022-08-14T10:41:38;4.50;;;4.10;;
4585;SDS011;2305;50.118;8.952;2022-08-14T10:44:21;10.20;;;4.33;;
4585;SDS011;2305;50.118;8.952;2022-08-14T10:46:57;7.13;;;4.17;;
4585;SDS011;2305;50.118;8.952;2022-08-14T10:49:56;7.20;;;4.93;;
4585;SDS011;2305;50.118;8.952;2022-08-14T10:52:27;6.17;;;4.37;;
4585;SDS011;2305;50.118;8.952;2022-08-14T10:55:05;6.70;;;4.53;;
4585;SDS011;2305;50.118;8.952;2022-08-14T10:57:48;5.63;;;4.20;;
4585;SDS011;2305;50.118;8.952;2022-08-14T11:00:18;7.10;;;4.27;;
4585;SDS011;2305;50.118;8.952;2022-08-14T11:03:01;4.40;;;4.03;;
4585;SDS011;2305;50.118;8.952;2022-08-14T11:05:38;4.70;;;3.80;;
4585;SDS011;2305;50.118;8.952;2022-08-14T11:08:08;6.80;;;3.60;;
4585;SDS011;2305;50.118;8.952;2022-08-14T11:10:41;5.90;;;4.53;;
4585;SDS011;2305;50.118;8.952;2022-08-14T11:13:14;4.60;;;4.10;;
4585;SDS011;2305;50.118;8.952;2022-08-14T11:15:44;8.57;;;3.67;;
4585;SDS011;2305;50.118;8.952;2022-08-14T11:18:15;9.37;;;3.00;;
4585;SDS011;2305;50.118;8.952;2022-08-14T11:20:58;3.60;;;3.13;;
4585;SDS011;2305;50.118;8.952;2022-08-14T11:23:28;3.03;;;2.83;;
4585;SDS011;2305;50.118;8.952;2022-08-14T11:26:07;3.83;;;3.17;;
4585;SDS011;2305;50.118;8.952;2022-08-14T11:28:37;2.90;;;2.67;;
4585;SDS011;2305;50.118;8.952;2022-08-14T11:31:15;3.50;;;3.20;;
4585;SDS011;2305;50.118;8.952;2022-08-14T11:33:48;3.60;;;3.03;;
4585;SDS011;2305;50.118;8.952;2022-08-14T11:36:24;8.50;;;3.00;;
4585;SDS011;2305;50.118;8.952;2022-08-14T11:39:18;3.03;;;2.73;;
4585;SDS011;2305;50.118;8.952;2022-08-14T11:42:02;2.80;;;2.60;;
4585;SDS011;2305;50.118;8.952;2022-08-14T11:44:51;2.97;;;2.67;;
4585;SDS011;2305;50.118;8.952;2022-08-14T11:47:25;4.53;;;3.40;;
4585;SDS011;2305;50.118;8.952;2022-08-14T11:50:13;4.00;;;3.20;;
4585;SDS011;2305;50.118;8.952;2022-08-14T11:52:59;3.33;;;3.07;;
4585;SDS011;2305;50.118;8.952;2022-08-14T11:55:32;2.97;;;2.70;;
4585;SDS011;2305;50.118;8.952;2022-08-14T11:58:06;3.20;;;2.80;;
4585;SDS011;2305;50.118;8.952;2022-08-14T12:00:46;4.40;;;3.00;;
4585;SDS011;2305;50.118;8.952;2022-08-14T12:03:18;2.90;;;2.33;;
4585;SDS011;2305;50.118;8.952;2022-08-14T12:06:04;3.83;;;3.23;;
4585;SDS011;2305;50.118;8.952;2022-08-14T12:08:54;2.90;;;2.70;;
4585;SDS011;2305;50.118;8.952;2022-08-14T12:11:26;3.60;;;2.87;;
4585;SDS011;2305;50.118;8.952;2022-08-14T12:14:10;4.47;;;2.60;;
4585;SDS011;2305;50.118;8.952;2022-08-14T12:17:01;4.60;;;3.30;;
4585;SDS011;2305;50.118;8.952;2022-08-14T12:19:42;3.10;;;2.57;;
4585;SDS011;2305;50.118;8.952;2022-08-14T12:22:17;3.73;;;3.43;;
4585;SDS011;2305;50.118;8.952;2022-08-14T12:24:55;3.20;;;2.83;;
4585;SDS011;2305;50.118;8.952;2022-08-14T12:27:33;3.23;;;3.00;;
4585;SDS011;2305;50.118;8.952;2022-08-14T12:30:11;7.00;;;3.00;;
4585;SDS011;2305;50.118;8.952;2022-08-14T12:32:47;7.13;;;3.30;;
4585;SDS011;2305;50.118;8.952;2022-08-14T12:35:16;5.77;;;2.87;;
4585;SDS011;2305;50.118;8.952;2022-08-14T12:37:46;8.50;;;2.53;;
4585;SDS011;2305;50.118;8.952;2022-08-14T12:40:16;3.13;;;2.93;;
4585;SDS011;2305;50.118;8.952;2022-08-14T12:42:49;3.13;;;2.93;;
4585;SDS011;2305;50.118;8.952;2022-08-14T12:45:29;2.87;;;2.67;;
4585;SDS011;2305;50.118;8.952;2022-08-14T12:48:00;4.70;;;3.10;;
4585;SDS011;2305;50.118;8.952;2022-08-14T12:50:48;2.80;;;2.60;;
4585;SDS011;2305;50.118;8.952;2022-08-14T12:53:18;3.87;;;2.80;;
4585;SDS011;2305;50.118;8.952;2022-08-14T12:55:57;3.30;;;3.00;;
4585;SDS011;2305;50.118;8.952;2022-08-14T12:58:47;4.87;;;3.20;;
4585;SDS011;2305;50.118;8.952;2022-08-14T13:01:20;4.30;;;2.93;;
4585;SDS011;2305;50.118;8.952;2022-08-14T13:04:01;3.40;;;3.10;;
4585;SDS011;2305;50.118;8.952;2022-08-14T13:06:33;3.20;;;2.90;;
4585;SDS011;2305;50.118;8.952;2022-08-14T13:09:02;4.67;;;2.80;;
4585;SDS011;2305;50.118;8.952;2022-08-14T13:11:37;7.73;;;2.50;;
4585;SDS011;2305;50.118;8.952;2022-08-14T13:14:10;3.83;;;3.07;;
4585;SDS011;2305;50.118;8.952;2022-08-14T13:16:44;3.57;;;3.27;;
4585;SDS011;2305;50.118;8.952;2022-08-14T13:19:16;3.40;;;3.10;;
4585;SDS011;2305;50.118;8.952;2022-08-14T13:21:46;4.50;;;3.10;;
4585;SDS011;2305;50.118;8.952;2022-08-14T13:24:31;2.97;;;2.77;;
4585;SDS011;2305;50.118;8.952;2022-08-14T13:27:04;4.13;;;3.53;;
4585;SDS011;2305;50.118;8.952;2022-08-14T13:29:38;3.50;;;3.20;;
4585;SDS011;2305;50.118;8.952;2022-08-14T13:32:14;3.60;;;3.13;;
4585;SDS011;2305;50.118;8.952;2022-08-14T13:34:43;3.27;;;2.97;;
4585;SDS011;2305;50.118;8.952;2022-08-14T13:37:18;3.40;;;3.10;;
4585;SDS011;2305;50.118;8.952;2022-08-14T13:39:49;3.30;;;3.00;;
4585;SDS011;2305;50.118;8.952;2022-08-14T13:42:24;4.00;;;3.10;;
4585;SDS011;2305;50.118;8.952;2022-08-14T13:44:58;4.03;;;3.07;;
4585;SDS011;2305;50.118;8.952;2022-08-14T13:47:29;4.80;;;3.00;;
4585;SDS011;2305;50.118;8.952;2022-08-14T13:50:00;3.27;;;2.97;;
4585;SDS011;2305;50.118;8.952;2022-08-14T13:52:32;3.70;;;3.40;;
4585;SDS011;2305;50.118;8.952;2022-08-14T13:55:25;2.67;;;2.47;;
4585;SDS011;2305;50.118;8.952;2022-08-14T13:57:56;3.10;;;2.43;;
4585;SDS011;2305;50.118;8.952;2022-08-14T14:00:33;5.00;;;3.70;;
4585;SDS011;2305;50.118;8.952;2022-08-14T14:03:22;3.53;;;3.20;;
4585;SDS011;2305;50.118;8.952;2022-08-14T14:05:57;5.17;;;3.27;;
4585;SDS011;2305;50.118;8.952;2022-08-14T14:08:26;3.97;;;3.57;;
4585;SDS011;2305;50.118;8.952;2022-08-14T14:11:13;3.50;;;2.80;;
4585;SDS011;2305;50.118;8.952;2022-08-14T14:13:44;3.13;;;2.83;;
4585;SDS011;2305;50.118;8.952;2022-08-14T14:16:16;2.83;;;2.50;;
4585;SDS011;2305;50.118;8.952;2022-08-14T14:18:54;3.37;;;3.07;;
4585;SDS011;2305;50.118;8.952;2022-08-14T14:21:34;2.90;;;2.70;;
4585;SDS011;2305;50.118;8.952;2022-08-14T14:24:06;8.43;;;2.80;;
4585;SDS011;2305;50.118;8.952;2022-08-14T14:26:43;4.33;;;2.57;;
4585;SDS011;2305;50.118;8.952;2022-08-14T14:29:12;5.73;;;2.50;;
4585;SDS011;2305;50.118;8.952;2022-08-14T14:31:42;3.10;;;2.80;;
4585;SDS011;2305;50.118;8.952;2022-08-14T14:34:16;5.40;;;3.30;;
4585;SDS011;2305;50.118;8.952;2022-08-14T14:36:59;2.80;;;2.60;;
4585;SDS011;2305;50.118;8.952;2022-08-14T14:39:32;3.60;;;2.40;;
4585;SDS011;2305;50.118;8.952;2022-08-14T14:42:21;3.00;;;2.80;;
4585;SDS011;2305;50.118;8.952;2022-08-14T14:45:01;3.23;;;2.67;;
4585;SDS011;2305;50.118;8.952;2022-08-14T14:47:34;3.83;;;2.70;;
4585;SDS011;2305;50.118;8.952;2022-08-14T14:50:04;3.10;;;2.80;;
4585;SDS011;2305;50.118;8.952;2022-08-14T14:52:39;2.53;;;2.33;;
4585;SDS011;2305;50.118;8.952;2022-08-14T14:55:08;2.87;;;2.60;;
4585;SDS011;2305;50.118;8.952;2022-08-14T14:57:43;2.60;;;2.40;;
4585;SDS011;2305;50.118;8.952;2022-08-14T15:00:20;3.30;;;3.00;;
4585;SDS011;2305;50.118;8.952;2022-08-14T15:02:49;3.07;;;2.60;;
4585;SDS011;2305;50.118;8.952;2022-08-14T15:05:26;2.80;;;2.60;;
4585;SDS011;2305;50.118;8.952;2022-08-14T15:07:54;2.70;;;2.50;;
4585;SDS011;2305;50.118;8.952;2022-08-14T15:10:23;2.50;;;2.30;;
4585;SDS011;2305;50.118;8.952;2022-08-14T15:13:00;3.10;;;2.90;;
4585;SDS011;2305;50.118;8.952;2022-08-14T15:15:34;3.20;;;2.33;;
4585;SDS011;2305;50.118;8.952;2022-08-14T15:18:05;2.70;;;2.50;;
4585;SDS011;2305;50.118;8.952;2022-08-14T15:20:54;2.53;;;2.33;;
4585;SDS011;2305;50.118;8.952;2022-08-14T15:23:23;3.07;;;2.73;;
4585;SDS011;2305;50.118;8.952;2022-08-14T15:26:10;3.00;;;2.80;;
4585;SDS011;2305;50.118;8.952;2022-08-14T15:28:58;2.50;;;2.30;;
4585;SDS011;2305;50.118;8.952;2022-08-14T15:31:30;2.63;;;2.43;;
4585;SDS011;2305;50.118;8.952;2022-08-14T15:34:02;3.20;;;2.90;;
4585;SDS011;2305;50.118;8.952;2022-08-14T15:36:58;4.82;;;2.58;;
4585;SDS011;2305;50.118;8.952;2022-08-14T15:39:28;2.67;;;1.90;;
4585;SDS011;2305;50.118;8.952;2022-08-14T15:42:01;2.30;;;2.13;;
4585;SDS011;2305;50.118;8.952;2022-08-14T15:44:42;4.10;;;2.85;;
4585;SDS011;2305;50.118;8.952;2022-08-14T15:47:27;4.93;;;2.70;;
4585;SDS011;2305;50.118;8.952;2022-08-14T15:49:57;2.55;;;2.35;;
4585;SDS011;2305;50.118;8.952;2022-08-14T15:52:27;2.47;;;2.28;;
4585;SDS011;2305;50.118;8.952;2022-08-14T15:55:02;2.58;;;2.38;;
4585;SDS011;2305;50.118;8.952;2022-08-14T15:57:33;6.07;;;2.42;;
4585;SDS011;2305;50.118;8.952;2022-08-14T16:00:02;2.83;;;2.10;;
4585;SDS011;2305;50.118;8.952;2022-08-14T16:03:09;2.70;;;2.30;;
4585;SDS011;2305;50.118;8.952;2022-08-14T16:05:42;4.13;;;2.23;;
4585;SDS011;2305;50.118;8.952;2022-08-14T16:08:13;2.22;;;2.03;;
4585;SDS011;2305;50.118;8.952;2022-08-14T16:10:56;2.17;;;2.03;;
4585;SDS011;2305;50.118;8.952;2022-08-14T16:13:25;2.78;;;2.15;;
4585;SDS011;2305;50.118;8.952;2022-08-14T16:16:13;2.10;;;1.92;;
4585;SDS011;2305;50.118;8.952;2022-08-14T16:19:03;2.30;;;2.10;;
4585;SDS011;2305;50.118;8.952;2022-08-14T16:21:37;1.80;;;1.70;;